sensor_id;sensor_type;location;lat;lon;timestamp;P1;durP1;ratioP1;P2;durP2;ratioP2
18677;SDS011;9469;51.114;13.914;2022-08-25T00:03:44;20.57;;;14.27;;
18677;SDS011;9469;51.114;13.914;2022-08-25T00:08:50;16.23;;;13.07;;
18677;SDS011;9469;51.114;13.914;2022-08-25T00:14:04;17.63;;;13.63;;
18677;SDS011;9469;51.114;13.914;2022-08-25T00:19:13;18.63;;;14.17;;
18677;SDS011;9469;51.114;13.914;2022-08-25T00:24:22;17.03;;;12.50;;
18677;SDS011;9469;51.114;13.914;2022-08-25T00:29:30;19.13;;;12.50;;
18677;SDS011;9469;51.114;13.914;2022-08-25T00:34:38;16.57;;;13.33;;
18677;SDS011;9469;51.114;13.914;2022-08-25T00:39:43;16.20;;;12.77;;
18677;SDS011;9469;51.114;13.914;2022-08-25T00:44:51;19.50;;;13.67;;
18677;SDS011;9469;51.114;13.914;2022-08-25T00:49:57;18.20;;;14.33;;
18677;SDS011;9469;51.114;13.914;2022-08-25T00:55:06;17.97;;;12.90;;
18677;SDS011;9469;51.114;13.914;2022-08-25T01:00:23;16.43;;;13.47;;
18677;SDS011;9469;51.114;13.914;2022-08-25T01:05:30;20.60;;;13.13;;
18677;SDS011;9469;51.114;13.914;2022-08-25T01:10:37;13.70;;;12.17;;
18677;SDS011;9469;51.114;13.914;2022-08-25T01:15:47;15.47;;;11.83;;
18677;SDS011;9469;51.114;13.914;2022-08-25T01:20:59;22.13;;;12.57;;
18677;SDS011;9469;51.114;13.914;2022-08-25T01:26:04;18.20;;;12.93;;
18677;SDS011;9469;51.114;13.914;2022-08-25T01:31:13;18.53;;;13.30;;
18677;SDS011;9469;51.114;13.914;2022-08-25T01:36:27;15.27;;;12.00;;
18677;SDS011;9469;51.114;13.914;2022-08-25T01:41:35;20.50;;;12.70;;
18677;SDS011;9469;51.114;13.914;2022-08-25T01:46:52;20.40;;;13.70;;
18677;SDS011;9469;51.114;13.914;2022-08-25T01:52:04;19.77;;;14.00;;
18677;SDS011;9469;51.114;13.914;2022-08-25T01:57:11;17.13;;;12.87;;
18677;SDS011;9469;51.114;13.914;2022-08-25T02:02:16;18.60;;;13.23;;
18677;SDS011;9469;51.114;13.914;2022-08-25T02:07:23;16.53;;;11.93;;
18677;SDS011;9469;51.114;13.914;2022-08-25T02:12:28;15.03;;;12.20;;
18677;SDS011;9469;51.114;13.914;2022-08-25T02:17:34;15.83;;;12.50;;
18677;SDS011;9469;51.114;13.914;2022-08-25T02:22:43;17.10;;;12.67;;
18677;SDS011;9469;51.114;13.914;2022-08-25T02:27:57;14.83;;;13.23;;
18677;SDS011;9469;51.114;13.914;2022-08-25T02:33:03;16.33;;;13.90;;
18677;SDS011;9469;51.114;13.914;2022-08-25T02:38:10;16.13;;;14.30;;
18677;SDS011;9469;51.114;13.914;2022-08-25T02:43:15;18.03;;;13.57;;
18677;SDS011;9469;51.114;13.914;2022-08-25T02:48:20;17.80;;;12.67;;
18677;SDS011;9469;51.114;13.914;2022-08-25T02:53:28;20.27;;;13.80;;
18677;SDS011;9469;51.114;13.914;2022-08-25T02:58:33;22.73;;;14.80;;
18677;SDS011;9469;51.114;13.914;2022-08-25T03:03:40;21.53;;;14.63;;
18677;SDS011;9469;51.114;13.914;2022-08-25T03:08:50;19.07;;;16.33;;
18677;SDS011;9469;51.114;13.914;2022-08-25T03:13:56;21.07;;;14.90;;
18677;SDS011;9469;51.114;13.914;2022-08-25T03:19:01;19.83;;;15.23;;
18677;SDS011;9469;51.114;13.914;2022-08-25T03:24:09;18.87;;;16.13;;
18677;SDS011;9469;51.114;13.914;2022-08-25T03:29:14;20.07;;;16.90;;
18677;SDS011;9469;51.114;13.914;2022-08-25T03:34:20;19.93;;;16.33;;
18677;SDS011;9469;51.114;13.914;2022-08-25T03:39:28;20.10;;;15.87;;
18677;SDS011;9469;51.114;13.914;2022-08-25T03:44:34;18.50;;;15.97;;
18677;SDS011;9469;51.114;13.914;2022-08-25T03:49:39;17.90;;;15.60;;
18677;SDS011;9469;51.114;13.914;2022-08-25T03:54:46;19.13;;;15.73;;
18677;SDS011;9469;51.114;13.914;2022-08-25T03:59:52;19.47;;;14.83;;
18677;SDS011;9469;51.114;13.914;2022-08-25T04:04:57;19.17;;;16.03;;
18677;SDS011;9469;51.114;13.914;2022-08-25T04:10:05;21.13;;;15.63;;
18677;SDS011;9469;51.114;13.914;2022-08-25T04:15:11;18.77;;;15.57;;
18677;SDS011;9469;51.114;13.914;2022-08-25T04:20:16;22.53;;;17.47;;
18677;SDS011;9469;51.114;13.914;2022-08-25T04:25:24;18.07;;;15.60;;
18677;SDS011;9469;51.114;13.914;2022-08-25T04:30:31;18.83;;;16.63;;
18677;SDS011;9469;51.114;13.914;2022-08-25T04:35:39;17.97;;;15.90;;
18677;SDS011;9469;51.114;13.914;2022-08-25T04:40:53;18.37;;;16.00;;
18677;SDS011;9469;51.114;13.914;2022-08-25T04:46:03;22.67;;;16.77;;
18677;SDS011;9469;51.114;13.914;2022-08-25T04:51:14;19.77;;;15.43;;
18677;SDS011;9469;51.114;13.914;2022-08-25T04:56:23;17.73;;;14.47;;
18677;SDS011;9469;51.114;13.914;2022-08-25T05:01:28;19.80;;;14.57;;
18677;SDS011;9469;51.114;13.914;2022-08-25T05:06:35;18.67;;;14.07;;
18677;SDS011;9469;51.114;13.914;2022-08-25T05:11:44;19.50;;;16.07;;
18677;SDS011;9469;51.114;13.914;2022-08-25T05:16:49;19.37;;;14.90;;
18677;SDS011;9469;51.114;13.914;2022-08-25T05:21:54;22.63;;;15.73;;
18677;SDS011;9469;51.114;13.914;2022-08-25T05:27:01;17.67;;;14.30;;
18677;SDS011;9469;51.114;13.914;2022-08-25T05:32:11;16.90;;;14.63;;
18677;SDS011;9469;51.114;13.914;2022-08-25T05:37:18;20.53;;;14.93;;
18677;SDS011;9469;51.114;13.914;2022-08-25T05:42:26;17.03;;;14.57;;
18677;SDS011;9469;51.114;13.914;2022-08-25T05:47:31;14.93;;;13.37;;
18677;SDS011;9469;51.114;13.914;2022-08-25T05:52:37;19.70;;;14.43;;
18677;SDS011;9469;51.114;13.914;2022-08-25T05:57:46;17.70;;;13.47;;
18677;SDS011;9469;51.114;13.914;2022-08-25T06:02:51;22.17;;;15.23;;
18677;SDS011;9469;51.114;13.914;2022-08-25T06:07:56;20.30;;;14.20;;
18677;SDS011;9469;51.114;13.914;2022-08-25T06:13:06;21.07;;;14.93;;
18677;SDS011;9469;51.114;13.914;2022-08-25T06:18:33;17.83;;;14.32;;
18677;SDS011;9469;51.114;13.914;2022-08-25T06:23:38;18.08;;;15.55;;
18677;SDS011;9469;51.114;13.914;2022-08-25T06:28:46;21.17;;;15.80;;
18677;SDS011;9469;51.114;13.914;2022-08-25T06:33:51;17.45;;;15.65;;
18677;SDS011;9469;51.114;13.914;2022-08-25T06:38:56;17.65;;;15.60;;
18677;SDS011;9469;51.114;13.914;2022-08-25T06:44:06;17.37;;;15.57;;
18677;SDS011;9469;51.114;13.914;2022-08-25T06:49:12;22.25;;;16.40;;
18677;SDS011;9469;51.114;13.914;2022-08-25T06:54:17;20.10;;;16.90;;
18677;SDS011;9469;51.114;13.914;2022-08-25T06:59:24;22.08;;;16.35;;
18677;SDS011;9469;51.114;13.914;2022-08-25T07:04:33;22.23;;;15.73;;
18677;SDS011;9469;51.114;13.914;2022-08-25T07:09:39;17.20;;;14.70;;
18677;SDS011;9469;51.114;13.914;2022-08-25T07:14:46;17.83;;;14.38;;
18677;SDS011;9469;51.114;13.914;2022-08-25T07:20:12;19.08;;;13.05;;
18677;SDS011;9469;51.114;13.914;2022-08-25T07:25:19;20.23;;;13.20;;
18677;SDS011;9469;51.114;13.914;2022-08-25T07:30:27;18.30;;;12.40;;
18677;SDS011;9469;51.114;13.914;2022-08-25T07:35:32;21.10;;;13.30;;
18677;SDS011;9469;51.114;13.914;2022-08-25T07:40:38;15.07;;;13.15;;
18677;SDS011;9469;51.114;13.914;2022-08-25T07:45:48;17.85;;;12.82;;
18677;SDS011;9469;51.114;13.914;2022-08-25T07:50:53;19.17;;;12.70;;
18677;SDS011;9469;51.114;13.914;2022-08-25T07:55:58;19.27;;;11.23;;
18677;SDS011;9469;51.114;13.914;2022-08-25T08:01:06;17.95;;;10.10;;
18677;SDS011;9469;51.114;13.914;2022-08-25T08:06:17;12.65;;;8.25;;
18677;SDS011;9469;51.114;13.914;2022-08-25T08:11:25;19.08;;;8.70;;
18677;SDS011;9469;51.114;13.914;2022-08-25T08:16:34;17.05;;;10.10;;
18677;SDS011;9469;51.114;13.914;2022-08-25T08:21:40;14.52;;;8.80;;
18677;SDS011;9469;51.114;13.914;2022-08-25T08:26:47;15.00;;;9.90;;
18677;SDS011;9469;51.114;13.914;2022-08-25T08:32:02;15.85;;;8.55;;
18677;SDS011;9469;51.114;13.914;2022-08-25T08:37:09;21.27;;;9.30;;
18677;SDS011;9469;51.114;13.914;2022-08-25T08:42:21;15.30;;;8.07;;
18677;SDS011;9469;51.114;13.914;2022-08-25T08:47:42;17.67;;;7.05;;
18677;SDS011;9469;51.114;13.914;2022-08-25T08:52:54;14.07;;;7.28;;
18677;SDS011;9469;51.114;13.914;2022-08-25T08:58:06;15.27;;;6.53;;
18677;SDS011;9469;51.114;13.914;2022-08-25T09:03:21;18.13;;;6.65;;
18677;SDS011;9469;51.114;13.914;2022-08-25T09:08:33;11.02;;;6.82;;
18677;SDS011;9469;51.114;13.914;2022-08-25T09:13:50;19.60;;;8.35;;
18677;SDS011;9469;51.114;13.914;2022-08-25T09:19:12;14.43;;;7.55;;
18677;SDS011;9469;51.114;13.914;2022-08-25T09:24:40;14.50;;;7.88;;
18677;SDS011;9469;51.114;13.914;2022-08-25T09:29:59;20.17;;;8.02;;
18677;SDS011;9469;51.114;13.914;2022-08-25T09:35:15;22.25;;;9.13;;
18677;SDS011;9469;51.114;13.914;2022-08-25T09:40:23;20.63;;;8.85;;
18677;SDS011;9469;51.114;13.914;2022-08-25T09:45:33;19.92;;;7.45;;
18677;SDS011;9469;51.114;13.914;2022-08-25T09:50:46;19.52;;;8.70;;
18677;SDS011;9469;51.114;13.914;2022-08-25T09:55:53;21.05;;;7.55;;
18677;SDS011;9469;51.114;13.914;2022-08-25T10:01:11;20.55;;;7.60;;
18677;SDS011;9469;51.114;13.914;2022-08-25T10:06:22;23.05;;;7.90;;
18677;SDS011;9469;51.114;13.914;2022-08-25T10:11:38;20.75;;;8.45;;
18677;SDS011;9469;51.114;13.914;2022-08-25T10:16:49;25.90;;;7.80;;
18677;SDS011;9469;51.114;13.914;2022-08-25T10:22:04;23.88;;;7.60;;
18677;SDS011;9469;51.114;13.914;2022-08-25T10:27:15;22.95;;;7.55;;
18677;SDS011;9469;51.114;13.914;2022-08-25T10:32:32;25.38;;;8.57;;
18677;SDS011;9469;51.114;13.914;2022-08-25T10:37:52;19.70;;;8.55;;
18677;SDS011;9469;51.114;13.914;2022-08-25T10:43:21;24.85;;;8.60;;
18677;SDS011;9469;51.114;13.914;2022-08-25T10:48:41;24.65;;;8.25;;
18677;SDS011;9469;51.114;13.914;2022-08-25T10:53:58;27.80;;;7.30;;
18677;SDS011;9469;51.114;13.914;2022-08-25T10:59:26;22.45;;;8.10;;
18677;SDS011;9469;51.114;13.914;2022-08-25T11:04:37;26.25;;;7.60;;
18677;SDS011;9469;51.114;13.914;2022-08-25T11:09:51;24.00;;;7.57;;
18677;SDS011;9469;51.114;13.914;2022-08-25T11:15:02;32.17;;;11.90;;
18677;SDS011;9469;51.114;13.914;2022-08-25T11:20:13;28.63;;;8.18;;
18677;SDS011;9469;51.114;13.914;2022-08-25T11:25:31;27.77;;;7.43;;
18677;SDS011;9469;51.114;13.914;2022-08-25T11:30:39;22.80;;;7.38;;
18677;SDS011;9469;51.114;13.914;2022-08-25T11:35:47;28.63;;;9.18;;
18677;SDS011;9469;51.114;13.914;2022-08-25T11:41:01;22.90;;;8.02;;
18677;SDS011;9469;51.114;13.914;2022-08-25T11:46:17;24.23;;;8.05;;
18677;SDS011;9469;51.114;13.914;2022-08-25T12:19:56;31.13;;;7.82;;
18677;SDS011;9469;51.114;13.914;2022-08-25T12:25:03;22.33;;;7.32;;
18677;SDS011;9469;51.114;13.914;2022-08-25T12:30:14;23.25;;;7.25;;
18677;SDS011;9469;51.114;13.914;2022-08-25T12:35:30;30.02;;;6.60;;
18677;SDS011;9469;51.114;13.914;2022-08-25T12:40:37;31.17;;;7.40;;
18677;SDS011;9469;51.114;13.914;2022-08-25T12:57:00;26.42;;;6.80;;
18677;SDS011;9469;51.114;13.914;2022-08-25T13:02:30;26.95;;;7.93;;
18677;SDS011;9469;51.114;13.914;2022-08-25T13:08:03;30.90;;;8.35;;
18677;SDS011;9469;51.114;13.914;2022-08-25T13:13:36;30.20;;;8.65;;
18677;SDS011;9469;51.114;13.914;2022-08-25T13:18:48;24.02;;;7.75;;
18677;SDS011;9469;51.114;13.914;2022-08-25T13:23:58;22.45;;;7.43;;
18677;SDS011;9469;51.114;13.914;2022-08-25T13:29:11;27.65;;;8.13;;
18677;SDS011;9469;51.114;13.914;2022-08-25T13:34:21;26.25;;;6.78;;
18677;SDS011;9469;51.114;13.914;2022-08-25T13:39:38;20.02;;;7.43;;
18677;SDS011;9469;51.114;13.914;2022-08-25T13:44:57;21.00;;;7.32;;
18677;SDS011;9469;51.114;13.914;2022-08-25T13:55:46;21.98;;;7.82;;
18677;SDS011;9469;51.114;13.914;2022-08-25T14:01:02;27.88;;;7.88;;
18677;SDS011;9469;51.114;13.914;2022-08-25T14:06:32;27.48;;;7.53;;
18677;SDS011;9469;51.114;13.914;2022-08-25T14:11:42;24.92;;;6.68;;
18677;SDS011;9469;51.114;13.914;2022-08-25T14:16:51;28.45;;;6.63;;
18677;SDS011;9469;51.114;13.914;2022-08-25T14:22:22;24.45;;;6.22;;
18677;SDS011;9469;51.114;13.914;2022-08-25T14:27:30;28.10;;;6.70;;
18677;SDS011;9469;51.114;13.914;2022-08-25T14:32:51;24.45;;;7.15;;
18677;SDS011;9469;51.114;13.914;2022-08-25T14:37:56;25.67;;;7.35;;
18677;SDS011;9469;51.114;13.914;2022-08-25T14:43:05;33.00;;;8.95;;
18677;SDS011;9469;51.114;13.914;2022-08-25T14:48:12;25.85;;;7.30;;
18677;SDS011;9469;51.114;13.914;2022-08-25T14:53:24;26.15;;;7.85;;
18677;SDS011;9469;51.114;13.914;2022-08-25T14:58:33;32.25;;;7.57;;
18677;SDS011;9469;51.114;13.914;2022-08-25T15:03:55;23.67;;;7.40;;
18677;SDS011;9469;51.114;13.914;2022-08-25T15:09:04;20.02;;;7.28;;
18677;SDS011;9469;51.114;13.914;2022-08-25T15:14:15;26.48;;;7.15;;
18677;SDS011;9469;51.114;13.914;2022-08-25T15:19:34;17.52;;;6.32;;
18677;SDS011;9469;51.114;13.914;2022-08-25T15:24:39;20.45;;;7.47;;
18677;SDS011;9469;51.114;13.914;2022-08-25T15:29:47;31.27;;;7.20;;
18677;SDS011;9469;51.114;13.914;2022-08-25T15:34:52;19.75;;;8.00;;
18677;SDS011;9469;51.114;13.914;2022-08-25T15:39:58;20.60;;;8.18;;
18677;SDS011;9469;51.114;13.914;2022-08-25T15:45:10;31.63;;;8.40;;
18677;SDS011;9469;51.114;13.914;2022-08-25T15:50:16;25.27;;;7.70;;
18677;SDS011;9469;51.114;13.914;2022-08-25T15:55:27;25.33;;;8.18;;
18677;SDS011;9469;51.114;13.914;2022-08-25T16:00:38;25.08;;;8.35;;
18677;SDS011;9469;51.114;13.914;2022-08-25T16:05:52;22.02;;;8.70;;
18677;SDS011;9469;51.114;13.914;2022-08-25T16:10:58;27.02;;;9.20;;
18677;SDS011;9469;51.114;13.914;2022-08-25T16:16:05;25.30;;;8.82;;
18677;SDS011;9469;51.114;13.914;2022-08-25T16:21:11;22.02;;;8.30;;
18677;SDS011;9469;51.114;13.914;2022-08-25T16:26:17;28.05;;;8.65;;
18677;SDS011;9469;51.114;13.914;2022-08-25T16:31:27;26.98;;;8.48;;
18677;SDS011;9469;51.114;13.914;2022-08-25T16:36:33;35.67;;;8.73;;
18677;SDS011;9469;51.114;13.914;2022-08-25T16:41:38;34.00;;;9.60;;
18677;SDS011;9469;51.114;13.914;2022-08-25T16:46:46;31.88;;;8.85;;
18677;SDS011;9469;51.114;13.914;2022-08-25T16:51:54;28.13;;;9.52;;
18677;SDS011;9469;51.114;13.914;2022-08-25T16:57:01;32.00;;;9.30;;
18677;SDS011;9469;51.114;13.914;2022-08-25T17:02:08;25.55;;;10.10;;
18677;SDS011;9469;51.114;13.914;2022-08-25T17:07:14;26.40;;;10.70;;
18677;SDS011;9469;51.114;13.914;2022-08-25T17:12:24;24.40;;;8.18;;
18677;SDS011;9469;51.114;13.914;2022-08-25T17:17:33;27.08;;;9.57;;
18677;SDS011;9469;51.114;13.914;2022-08-25T17:22:38;34.70;;;9.80;;
18677;SDS011;9469;51.114;13.914;2022-08-25T17:27:43;23.25;;;9.63;;
18677;SDS011;9469;51.114;13.914;2022-08-25T17:32:51;41.35;;;12.20;;
18677;SDS011;9469;51.114;13.914;2022-08-25T17:37:56;30.30;;;9.98;;
18677;SDS011;9469;51.114;13.914;2022-08-25T17:43:01;36.88;;;10.52;;
18677;SDS011;9469;51.114;13.914;2022-08-25T17:48:12;26.10;;;10.77;;
18677;SDS011;9469;51.114;13.914;2022-08-25T17:53:19;26.15;;;9.63;;
18677;SDS011;9469;51.114;13.914;2022-08-25T17:58:25;21.60;;;10.63;;
18677;SDS011;9469;51.114;13.914;2022-08-25T18:03:33;31.15;;;11.13;;
18677;SDS011;9469;51.114;13.914;2022-08-25T18:08:39;21.30;;;10.77;;
18677;SDS011;9469;51.114;13.914;2022-08-25T18:13:44;23.17;;;10.63;;
18677;SDS011;9469;51.114;13.914;2022-08-25T18:18:53;39.72;;;12.38;;
18677;SDS011;9469;51.114;13.914;2022-08-25T18:23:59;28.45;;;11.63;;
18677;SDS011;9469;51.114;13.914;2022-08-25T18:29:04;32.35;;;11.55;;
18677;SDS011;9469;51.114;13.914;2022-08-25T18:34:15;29.45;;;12.43;;
18677;SDS011;9469;51.114;13.914;2022-08-25T18:39:20;37.33;;;12.80;;
18677;SDS011;9469;51.114;13.914;2022-08-25T18:44:40;34.30;;;12.30;;
18677;SDS011;9469;51.114;13.914;2022-08-25T18:49:50;24.20;;;11.20;;
18677;SDS011;9469;51.114;13.914;2022-08-25T18:54:55;21.40;;;11.43;;
18677;SDS011;9469;51.114;13.914;2022-08-25T19:00:02;28.77;;;12.13;;
18677;SDS011;9469;51.114;13.914;2022-08-25T19:05:12;27.25;;;11.65;;
18677;SDS011;9469;51.114;13.914;2022-08-25T19:10:18;23.50;;;12.00;;
18677;SDS011;9469;51.114;13.914;2022-08-25T19:15:25;31.45;;;12.77;;
18677;SDS011;9469;51.114;13.914;2022-08-25T19:20:33;28.90;;;12.98;;
18677;SDS011;9469;51.114;13.914;2022-08-25T19:25:41;29.30;;;12.35;;
18677;SDS011;9469;51.114;13.914;2022-08-25T19:30:47;25.25;;;13.32;;
18677;SDS011;9469;51.114;13.914;2022-08-25T19:35:55;28.67;;;13.80;;
18677;SDS011;9469;51.114;13.914;2022-08-25T19:41:01;33.22;;;14.52;;
18677;SDS011;9469;51.114;13.914;2022-08-25T19:46:15;30.10;;;14.45;;
18677;SDS011;9469;51.114;13.914;2022-08-25T19:51:23;27.48;;;13.63;;
18677;SDS011;9469;51.114;13.914;2022-08-25T19:56:29;21.50;;;12.93;;
18677;SDS011;9469;51.114;13.914;2022-08-25T20:01:36;34.05;;;14.13;;
18677;SDS011;9469;51.114;13.914;2022-08-25T20:06:46;27.60;;;13.60;;
18677;SDS011;9469;51.114;13.914;2022-08-25T20:11:51;33.83;;;14.10;;
18677;SDS011;9469;51.114;13.914;2022-08-25T20:16:56;32.15;;;13.35;;
18677;SDS011;9469;51.114;13.914;2022-08-25T20:22:16;35.13;;;13.82;;
18677;SDS011;9469;51.114;13.914;2022-08-25T20:27:29;34.35;;;14.77;;
18677;SDS011;9469;51.114;13.914;2022-08-25T20:32:36;32.80;;;13.13;;
18677;SDS011;9469;51.114;13.914;2022-08-25T20:37:46;32.80;;;13.97;;
18677;SDS011;9469;51.114;13.914;2022-08-25T20:42:54;33.13;;;13.57;;
18677;SDS011;9469;51.114;13.914;2022-08-25T20:48:03;37.20;;;14.07;;
18677;SDS011;9469;51.114;13.914;2022-08-25T20:53:13;33.17;;;14.10;;
18677;SDS011;9469;51.114;13.914;2022-08-25T20:58:19;31.77;;;15.20;;
18677;SDS011;9469;51.114;13.914;2022-08-25T21:03:24;30.67;;;14.17;;
18677;SDS011;9469;51.114;13.914;2022-08-25T21:08:35;35.67;;;14.15;;
18677;SDS011;9469;51.114;13.914;2022-08-25T21:13:47;33.73;;;15.27;;
18677;SDS011;9469;51.114;13.914;2022-08-25T21:18:52;25.47;;;13.83;;
18677;SDS011;9469;51.114;13.914;2022-08-25T21:24:00;29.50;;;15.30;;
18677;SDS011;9469;51.114;13.914;2022-08-25T21:29:10;34.00;;;15.53;;
18677;SDS011;9469;51.114;13.914;2022-08-25T21:34:16;30.13;;;15.80;;
18677;SDS011;9469;51.114;13.914;2022-08-25T21:39:25;38.23;;;15.20;;
18677;SDS011;9469;51.114;13.914;2022-08-25T21:44:32;36.97;;;15.47;;
18677;SDS011;9469;51.114;13.914;2022-08-25T21:49:37;31.87;;;15.07;;
18677;SDS011;9469;51.114;13.914;2022-08-25T21:54:45;31.87;;;15.10;;
18677;SDS011;9469;51.114;13.914;2022-08-25T21:59:50;29.80;;;14.33;;
18677;SDS011;9469;51.114;13.914;2022-08-25T22:04:55;29.67;;;14.67;;
18677;SDS011;9469;51.114;13.914;2022-08-25T22:10:03;32.27;;;14.93;;
18677;SDS011;9469;51.114;13.914;2022-08-25T22:15:18;31.07;;;15.20;;
18677;SDS011;9469;51.114;13.914;2022-08-25T22:20:24;33.70;;;15.17;;
18677;SDS011;9469;51.114;13.914;2022-08-25T22:25:31;26.40;;;15.67;;
18677;SDS011;9469;51.114;13.914;2022-08-25T22:30:38;28.20;;;15.07;;
18677;SDS011;9469;51.114;13.914;2022-08-25T22:35:43;28.00;;;15.97;;
18677;SDS011;9469;51.114;13.914;2022-08-25T22:40:51;31.43;;;15.37;;
18677;SDS011;9469;51.114;13.914;2022-08-25T22:45:59;37.73;;;18.23;;
18677;SDS011;9469;51.114;13.914;2022-08-25T22:51:06;32.93;;;15.80;;
18677;SDS011;9469;51.114;13.914;2022-08-25T22:56:19;36.10;;;15.60;;
18677;SDS011;9469;51.114;13.914;2022-08-25T23:01:30;36.03;;;16.10;;
18677;SDS011;9469;51.114;13.914;2022-08-25T23:06:40;30.20;;;16.00;;
18677;SDS011;9469;51.114;13.914;2022-08-25T23:11:47;34.80;;;18.03;;
18677;SDS011;9469;51.114;13.914;2022-08-25T23:16:54;32.47;;;18.77;;
18677;SDS011;9469;51.114;13.914;2022-08-25T23:21:59;34.43;;;17.33;;
18677;SDS011;9469;51.114;13.914;2022-08-25T23:27:19;41.60;;;19.00;;
18677;SDS011;9469;51.114;13.914;2022-08-25T23:32:25;41.00;;;18.40;;
18677;SDS011;9469;51.114;13.914;2022-08-25T23:37:30;39.07;;;19.10;;
18677;SDS011;9469;51.114;13.914;2022-08-25T23:42:38;36.00;;;18.13;;
18677;SDS011;9469;51.114;13.914;2022-08-25T23:47:48;33.27;;;18.57;;
18677;SDS011;9469;51.114;13.914;2022-08-25T23:52:53;35.17;;;19.07;;
18677;SDS011;9469;51.114;13.914;2022-08-25T23:58:01;43.47;;;19.83;;
